sensor_id;sensor_type;location;lat;lon;timestamp;P1;durP1;ratioP1;P2;durP2;ratioP2
2001;SDS011;1003;48.002;7.788;2022-12-29T00:01:41;2.43;;;1.07;;
2001;SDS011;1003;48.002;7.788;2022-12-29T00:04:09;1.67;;;1.20;;
2001;SDS011;1003;48.002;7.788;2022-12-29T00:06:40;1.37;;;0.93;;
2001;SDS011;1003;48.002;7.788;2022-12-29T00:09:07;2.73;;;1.20;;
2001;SDS011;1003;48.002;7.788;2022-12-29T00:11:38;3.53;;;1.10;;
2001;SDS011;1003;48.002;7.788;2022-12-29T00:14:05;1.70;;;1.00;;
2001;SDS011;1003;48.002;7.788;2022-12-29T00:16:52;4.17;;;1.10;;
2001;SDS011;1003;48.002;7.788;2022-12-29T00:19:20;1.57;;;1.10;;
2001;SDS011;1003;48.002;7.788;2022-12-29T00:22:05;2.40;;;1.23;;
2001;SDS011;1003;48.002;7.788;2022-12-29T00:24:49;2.37;;;1.13;;
2001;SDS011;1003;48.002;7.788;2022-12-29T00:27:36;3.47;;;1.10;;
2001;SDS011;1003;48.002;7.788;2022-12-29T00:30:21;2.43;;;1.20;;
2001;SDS011;1003;48.002;7.788;2022-12-29T00:33:10;3.33;;;1.20;;
2001;SDS011;1003;48.002;7.788;2022-12-29T00:35:57;0.97;;;0.90;;
2001;SDS011;1003;48.002;7.788;2022-12-29T00:38:28;1.03;;;0.93;;
2001;SDS011;1003;48.002;7.788;2022-12-29T00:41:15;1.47;;;1.10;;
2001;SDS011;1003;48.002;7.788;2022-12-29T00:44:01;1.90;;;1.07;;
2001;SDS011;1003;48.002;7.788;2022-12-29T00:46:35;1.70;;;1.00;;
2001;SDS011;1003;48.002;7.788;2022-12-29T00:49:04;2.87;;;1.10;;
2001;SDS011;1003;48.002;7.788;2022-12-29T00:51:50;1.00;;;0.97;;
2001;SDS011;1003;48.002;7.788;2022-12-29T00:54:17;2.10;;;0.93;;
2001;SDS011;1003;48.002;7.788;2022-12-29T00:56:45;1.10;;;0.90;;
2001;SDS011;1003;48.002;7.788;2022-12-29T00:59:15;2.50;;;1.07;;
2001;SDS011;1003;48.002;7.788;2022-12-29T01:01:43;2.70;;;1.10;;
2001;SDS011;1003;48.002;7.788;2022-12-29T01:04:11;2.20;;;1.00;;
2001;SDS011;1003;48.002;7.788;2022-12-29T01:06:39;1.73;;;1.10;;
2001;SDS011;1003;48.002;7.788;2022-12-29T01:09:08;1.93;;;1.07;;
2001;SDS011;1003;48.002;7.788;2022-12-29T01:11:54;2.83;;;1.07;;
2001;SDS011;1003;48.002;7.788;2022-12-29T01:14:22;2.30;;;0.90;;
2001;SDS011;1003;48.002;7.788;2022-12-29T01:16:50;1.80;;;1.00;;
2001;SDS011;1003;48.002;7.788;2022-12-29T01:19:17;1.37;;;0.80;;
2001;SDS011;1003;48.002;7.788;2022-12-29T01:21:45;2.10;;;1.13;;
2001;SDS011;1003;48.002;7.788;2022-12-29T01:24:13;3.47;;;1.20;;
2001;SDS011;1003;48.002;7.788;2022-12-29T01:26:41;1.57;;;1.03;;
2001;SDS011;1003;48.002;7.788;2022-12-29T01:29:08;2.57;;;1.00;;
2001;SDS011;1003;48.002;7.788;2022-12-29T01:31:37;1.57;;;1.10;;
2001;SDS011;1003;48.002;7.788;2022-12-29T01:34:05;1.97;;;1.17;;
2001;SDS011;1003;48.002;7.788;2022-12-29T01:36:32;1.27;;;1.03;;
2001;SDS011;1003;48.002;7.788;2022-12-29T01:39:00;1.63;;;1.10;;
2001;SDS011;1003;48.002;7.788;2022-12-29T01:41:28;3.03;;;1.40;;
2001;SDS011;1003;48.002;7.788;2022-12-29T01:43:55;3.30;;;1.30;;
2001;SDS011;1003;48.002;7.788;2022-12-29T01:46:26;2.07;;;1.00;;
2001;SDS011;1003;48.002;7.788;2022-12-29T01:49:02;1.73;;;1.00;;
2001;SDS011;1003;48.002;7.788;2022-12-29T01:51:38;2.27;;;0.90;;
2001;SDS011;1003;48.002;7.788;2022-12-29T01:54:13;1.70;;;0.97;;
2001;SDS011;1003;48.002;7.788;2022-12-29T01:56:47;1.77;;;1.20;;
2001;SDS011;1003;48.002;7.788;2022-12-29T01:59:15;2.10;;;1.10;;
2001;SDS011;1003;48.002;7.788;2022-12-29T02:01:49;1.57;;;0.90;;
2001;SDS011;1003;48.002;7.788;2022-12-29T02:04:18;1.40;;;1.03;;
2001;SDS011;1003;48.002;7.788;2022-12-29T02:06:46;1.67;;;1.37;;
2001;SDS011;1003;48.002;7.788;2022-12-29T02:09:19;1.77;;;1.30;;
2001;SDS011;1003;48.002;7.788;2022-12-29T02:11:48;1.47;;;1.07;;
2001;SDS011;1003;48.002;7.788;2022-12-29T02:14:15;1.53;;;1.00;;
2001;SDS011;1003;48.002;7.788;2022-12-29T02:16:47;1.30;;;1.13;;
2001;SDS011;1003;48.002;7.788;2022-12-29T02:19:39;1.57;;;1.13;;
2001;SDS011;1003;48.002;7.788;2022-12-29T02:22:48;1.93;;;1.33;;
2001;SDS011;1003;48.002;7.788;2022-12-29T02:25:52;2.63;;;1.20;;
2001;SDS011;1003;48.002;7.788;2022-12-29T02:31:49;1.77;;;1.30;;
2001;SDS011;1003;48.002;7.788;2022-12-29T02:34:29;3.47;;;1.13;;
2001;SDS011;1003;48.002;7.788;2022-12-29T02:37:10;2.83;;;1.20;;
2001;SDS011;1003;48.002;7.788;2022-12-29T02:39:50;3.40;;;1.50;;
2001;SDS011;1003;48.002;7.788;2022-12-29T02:42:30;2.87;;;1.13;;
2001;SDS011;1003;48.002;7.788;2022-12-29T02:45:07;1.33;;;1.10;;
2001;SDS011;1003;48.002;7.788;2022-12-29T02:47:46;3.13;;;1.23;;
2001;SDS011;1003;48.002;7.788;2022-12-29T02:50:22;1.83;;;1.27;;
2001;SDS011;1003;48.002;7.788;2022-12-29T02:52:59;2.93;;;1.57;;
2001;SDS011;1003;48.002;7.788;2022-12-29T02:55:31;3.67;;;1.20;;
2001;SDS011;1003;48.002;7.788;2022-12-29T02:58:12;1.93;;;1.40;;
2001;SDS011;1003;48.002;7.788;2022-12-29T03:00:47;2.77;;;1.43;;
2001;SDS011;1003;48.002;7.788;2022-12-29T03:03:46;3.07;;;1.30;;
2001;SDS011;1003;48.002;7.788;2022-12-29T03:06:38;4.20;;;1.50;;
2001;SDS011;1003;48.002;7.788;2022-12-29T03:09:25;2.40;;;1.60;;
2001;SDS011;1003;48.002;7.788;2022-12-29T03:12:05;2.53;;;1.60;;
2001;SDS011;1003;48.002;7.788;2022-12-29T03:14:48;2.50;;;1.40;;
2001;SDS011;1003;48.002;7.788;2022-12-29T03:17:46;2.17;;;1.33;;
2001;SDS011;1003;48.002;7.788;2022-12-29T03:20:26;2.47;;;1.47;;
2001;SDS011;1003;48.002;7.788;2022-12-29T03:23:04;1.87;;;1.50;;
2001;SDS011;1003;48.002;7.788;2022-12-29T03:25:35;1.90;;;1.53;;
2001;SDS011;1003;48.002;7.788;2022-12-29T03:28:09;1.87;;;1.60;;
2001;SDS011;1003;48.002;7.788;2022-12-29T03:30:43;1.87;;;1.50;;
2001;SDS011;1003;48.002;7.788;2022-12-29T03:33:13;1.40;;;1.20;;
2001;SDS011;1003;48.002;7.788;2022-12-29T03:35:48;1.40;;;1.30;;
2001;SDS011;1003;48.002;7.788;2022-12-29T03:38:23;1.50;;;1.40;;
2001;SDS011;1003;48.002;7.788;2022-12-29T03:41:00;4.17;;;1.73;;
2001;SDS011;1003;48.002;7.788;2022-12-29T03:43:34;2.50;;;1.47;;
2001;SDS011;1003;48.002;7.788;2022-12-29T03:46:01;2.50;;;1.30;;
2001;SDS011;1003;48.002;7.788;2022-12-29T03:48:28;1.90;;;1.40;;
2001;SDS011;1003;48.002;7.788;2022-12-29T03:50:56;2.83;;;1.70;;
2001;SDS011;1003;48.002;7.788;2022-12-29T03:53:23;2.50;;;1.60;;
2001;SDS011;1003;48.002;7.788;2022-12-29T03:55:50;3.57;;;1.70;;
2001;SDS011;1003;48.002;7.788;2022-12-29T03:58:17;2.03;;;1.50;;
2001;SDS011;1003;48.002;7.788;2022-12-29T04:00:44;2.00;;;1.60;;
2001;SDS011;1003;48.002;7.788;2022-12-29T04:03:11;3.50;;;1.83;;
2001;SDS011;1003;48.002;7.788;2022-12-29T04:05:38;3.33;;;1.63;;
2001;SDS011;1003;48.002;7.788;2022-12-29T04:08:07;3.60;;;1.90;;
2001;SDS011;1003;48.002;7.788;2022-12-29T04:10:34;3.83;;;1.73;;
2001;SDS011;1003;48.002;7.788;2022-12-29T04:13:01;2.47;;;1.80;;
2001;SDS011;1003;48.002;7.788;2022-12-29T04:15:28;3.40;;;1.63;;
2001;SDS011;1003;48.002;7.788;2022-12-29T04:17:55;3.10;;;1.93;;
2001;SDS011;1003;48.002;7.788;2022-12-29T04:20:22;3.83;;;2.00;;
2001;SDS011;1003;48.002;7.788;2022-12-29T04:23:08;3.23;;;1.67;;
2001;SDS011;1003;48.002;7.788;2022-12-29T04:25:35;1.80;;;1.60;;
2001;SDS011;1003;48.002;7.788;2022-12-29T04:28:02;1.83;;;1.67;;
2001;SDS011;1003;48.002;7.788;2022-12-29T04:30:30;3.07;;;1.83;;
2001;SDS011;1003;48.002;7.788;2022-12-29T04:32:57;3.57;;;2.03;;
2001;SDS011;1003;48.002;7.788;2022-12-29T04:35:24;3.10;;;1.90;;
2001;SDS011;1003;48.002;7.788;2022-12-29T04:37:51;3.13;;;1.93;;
2001;SDS011;1003;48.002;7.788;2022-12-29T04:40:19;2.17;;;1.80;;
2001;SDS011;1003;48.002;7.788;2022-12-29T04:42:48;2.83;;;1.77;;
2001;SDS011;1003;48.002;7.788;2022-12-29T04:45:15;3.60;;;1.93;;
2001;SDS011;1003;48.002;7.788;2022-12-29T04:47:43;2.07;;;1.90;;
2001;SDS011;1003;48.002;7.788;2022-12-29T04:50:10;3.03;;;1.63;;
2001;SDS011;1003;48.002;7.788;2022-12-29T04:52:37;2.83;;;1.90;;
2001;SDS011;1003;48.002;7.788;2022-12-29T04:55:05;3.63;;;1.90;;
2001;SDS011;1003;48.002;7.788;2022-12-29T04:57:34;3.30;;;1.93;;
2001;SDS011;1003;48.002;7.788;2022-12-29T05:00:02;3.27;;;1.93;;
2001;SDS011;1003;48.002;7.788;2022-12-29T05:02:30;3.10;;;1.67;;
2001;SDS011;1003;48.002;7.788;2022-12-29T05:04:57;3.70;;;1.70;;
2001;SDS011;1003;48.002;7.788;2022-12-29T05:07:24;2.73;;;1.53;;
2001;SDS011;1003;48.002;7.788;2022-12-29T05:09:51;3.50;;;1.87;;
2001;SDS011;1003;48.002;7.788;2022-12-29T05:12:18;4.27;;;1.90;;
2001;SDS011;1003;48.002;7.788;2022-12-29T05:14:47;3.80;;;1.80;;
2001;SDS011;1003;48.002;7.788;2022-12-29T05:17:14;3.20;;;1.80;;
2001;SDS011;1003;48.002;7.788;2022-12-29T05:19:41;3.13;;;1.90;;
2001;SDS011;1003;48.002;7.788;2022-12-29T05:22:08;3.70;;;1.77;;
2001;SDS011;1003;48.002;7.788;2022-12-29T05:24:35;2.47;;;1.90;;
2001;SDS011;1003;48.002;7.788;2022-12-29T05:27:02;2.97;;;1.70;;
2001;SDS011;1003;48.002;7.788;2022-12-29T05:29:29;1.70;;;1.47;;
2001;SDS011;1003;48.002;7.788;2022-12-29T05:31:57;4.10;;;1.63;;
2001;SDS011;1003;48.002;7.788;2022-12-29T05:34:24;1.77;;;1.57;;
2001;SDS011;1003;48.002;7.788;2022-12-29T05:36:52;2.80;;;1.23;;
2001;SDS011;1003;48.002;7.788;2022-12-29T05:39:19;3.37;;;1.67;;
2001;SDS011;1003;48.002;7.788;2022-12-29T05:41:46;2.77;;;1.33;;
2001;SDS011;1003;48.002;7.788;2022-12-29T05:44:13;1.60;;;1.50;;
2001;SDS011;1003;48.002;7.788;2022-12-29T05:46:40;1.40;;;1.30;;
2001;SDS011;1003;48.002;7.788;2022-12-29T05:49:09;3.00;;;1.30;;
2001;SDS011;1003;48.002;7.788;2022-12-29T05:51:36;2.03;;;1.30;;
2001;SDS011;1003;48.002;7.788;2022-12-29T05:54:03;2.20;;;1.40;;
2001;SDS011;1003;48.002;7.788;2022-12-29T05:56:30;1.50;;;1.23;;
2001;SDS011;1003;48.002;7.788;2022-12-29T05:58:57;2.57;;;1.60;;
2001;SDS011;1003;48.002;7.788;2022-12-29T06:01:24;1.77;;;1.40;;
2001;SDS011;1003;48.002;7.788;2022-12-29T06:03:51;1.30;;;1.20;;
2001;SDS011;1003;48.002;7.788;2022-12-29T06:06:20;1.27;;;1.10;;
2001;SDS011;1003;48.002;7.788;2022-12-29T06:08:47;1.33;;;1.20;;
2001;SDS011;1003;48.002;7.788;2022-12-29T06:11:14;2.17;;;1.50;;
2001;SDS011;1003;48.002;7.788;2022-12-29T06:13:41;2.20;;;1.40;;
2001;SDS011;1003;48.002;7.788;2022-12-29T06:16:08;1.70;;;1.40;;
2001;SDS011;1003;48.002;7.788;2022-12-29T06:18:35;2.57;;;1.37;;
2001;SDS011;1003;48.002;7.788;2022-12-29T06:21:03;2.30;;;1.40;;
2001;SDS011;1003;48.002;7.788;2022-12-29T06:23:32;2.70;;;1.30;;
2001;SDS011;1003;48.002;7.788;2022-12-29T06:25:59;1.10;;;1.00;;
2001;SDS011;1003;48.002;7.788;2022-12-29T06:28:26;1.40;;;1.10;;
2001;SDS011;1003;48.002;7.788;2022-12-29T06:30:54;3.20;;;1.70;;
2001;SDS011;1003;48.002;7.788;2022-12-29T06:33:21;1.70;;;1.50;;
2001;SDS011;1003;48.002;7.788;2022-12-29T06:35:48;2.77;;;1.40;;
2001;SDS011;1003;48.002;7.788;2022-12-29T06:38:15;1.67;;;1.30;;
2001;SDS011;1003;48.002;7.788;2022-12-29T06:40:43;4.03;;;1.27;;
2001;SDS011;1003;48.002;7.788;2022-12-29T06:43:10;3.30;;;1.30;;
2001;SDS011;1003;48.002;7.788;2022-12-29T06:45:38;1.57;;;1.20;;
2001;SDS011;1003;48.002;7.788;2022-12-29T06:48:06;1.40;;;1.17;;
2001;SDS011;1003;48.002;7.788;2022-12-29T06:50:33;1.70;;;1.40;;
2001;SDS011;1003;48.002;7.788;2022-12-29T06:53:00;1.40;;;1.30;;
2001;SDS011;1003;48.002;7.788;2022-12-29T06:55:28;1.23;;;1.13;;
2001;SDS011;1003;48.002;7.788;2022-12-29T06:57:57;2.70;;;1.60;;
2001;SDS011;1003;48.002;7.788;2022-12-29T07:00:26;2.47;;;1.23;;
2001;SDS011;1003;48.002;7.788;2022-12-29T07:02:54;3.13;;;1.50;;
2001;SDS011;1003;48.002;7.788;2022-12-29T07:05:23;1.50;;;1.17;;
2001;SDS011;1003;48.002;7.788;2022-12-29T07:07:52;1.73;;;1.20;;
2001;SDS011;1003;48.002;7.788;2022-12-29T07:10:19;1.73;;;1.33;;
2001;SDS011;1003;48.002;7.788;2022-12-29T07:12:47;1.37;;;1.27;;
2001;SDS011;1003;48.002;7.788;2022-12-29T07:15:15;2.43;;;1.20;;
2001;SDS011;1003;48.002;7.788;2022-12-29T07:17:42;2.83;;;1.37;;
2001;SDS011;1003;48.002;7.788;2022-12-29T07:20:10;2.17;;;1.30;;
2001;SDS011;1003;48.002;7.788;2022-12-29T07:22:37;1.10;;;0.90;;
2001;SDS011;1003;48.002;7.788;2022-12-29T07:25:05;2.07;;;1.40;;
2001;SDS011;1003;48.002;7.788;2022-12-29T07:27:32;2.47;;;1.60;;
2001;SDS011;1003;48.002;7.788;2022-12-29T07:30:00;1.43;;;1.30;;
2001;SDS011;1003;48.002;7.788;2022-12-29T07:32:28;1.47;;;1.20;;
2001;SDS011;1003;48.002;7.788;2022-12-29T07:34:59;1.20;;;1.10;;
2001;SDS011;1003;48.002;7.788;2022-12-29T07:37:26;2.37;;;1.30;;
2001;SDS011;1003;48.002;7.788;2022-12-29T07:39:53;1.70;;;1.40;;
2001;SDS011;1003;48.002;7.788;2022-12-29T07:42:20;1.40;;;1.30;;
2001;SDS011;1003;48.002;7.788;2022-12-29T07:44:47;1.00;;;1.00;;
2001;SDS011;1003;48.002;7.788;2022-12-29T07:47:14;5.10;;;1.67;;
2001;SDS011;1003;48.002;7.788;2022-12-29T07:49:42;1.33;;;1.20;;
2001;SDS011;1003;48.002;7.788;2022-12-29T07:52:10;1.70;;;1.20;;
2001;SDS011;1003;48.002;7.788;2022-12-29T07:54:37;2.53;;;1.23;;
2001;SDS011;1003;48.002;7.788;2022-12-29T07:57:04;1.30;;;1.20;;
2001;SDS011;1003;48.002;7.788;2022-12-29T07:59:31;1.57;;;1.13;;
2001;SDS011;1003;48.002;7.788;2022-12-29T08:01:58;1.93;;;1.40;;
2001;SDS011;1003;48.002;7.788;2022-12-29T08:04:26;1.53;;;1.33;;
2001;SDS011;1003;48.002;7.788;2022-12-29T08:06:55;1.20;;;1.00;;
2001;SDS011;1003;48.002;7.788;2022-12-29T08:09:22;1.43;;;1.17;;
2001;SDS011;1003;48.002;7.788;2022-12-29T08:11:49;1.10;;;1.00;;
2001;SDS011;1003;48.002;7.788;2022-12-29T08:14:16;4.00;;;1.43;;
2001;SDS011;1003;48.002;7.788;2022-12-29T08:16:43;2.13;;;1.20;;
2001;SDS011;1003;48.002;7.788;2022-12-29T08:19:10;1.50;;;1.20;;
2001;SDS011;1003;48.002;7.788;2022-12-29T08:21:38;2.17;;;1.30;;
2001;SDS011;1003;48.002;7.788;2022-12-29T08:24:07;1.30;;;0.90;;
2001;SDS011;1003;48.002;7.788;2022-12-29T08:26:35;1.97;;;1.40;;
2001;SDS011;1003;48.002;7.788;2022-12-29T08:29:02;1.53;;;1.20;;
2001;SDS011;1003;48.002;7.788;2022-12-29T08:31:29;1.97;;;1.20;;
2001;SDS011;1003;48.002;7.788;2022-12-29T08:33:56;2.17;;;1.33;;
2001;SDS011;1003;48.002;7.788;2022-12-29T08:36:25;1.67;;;1.30;;
2001;SDS011;1003;48.002;7.788;2022-12-29T08:38:52;1.73;;;1.07;;
2001;SDS011;1003;48.002;7.788;2022-12-29T08:41:20;1.50;;;1.20;;
2001;SDS011;1003;48.002;7.788;2022-12-29T08:43:47;1.13;;;1.03;;
2001;SDS011;1003;48.002;7.788;2022-12-29T08:46:16;7.97;;;1.40;;
2001;SDS011;1003;48.002;7.788;2022-12-29T08:48:43;1.30;;;1.20;;
2001;SDS011;1003;48.002;7.788;2022-12-29T08:51:10;2.90;;;1.30;;
2001;SDS011;1003;48.002;7.788;2022-12-29T08:53:37;1.53;;;0.90;;
2001;SDS011;1003;48.002;7.788;2022-12-29T08:56:05;2.30;;;1.10;;
2001;SDS011;1003;48.002;7.788;2022-12-29T08:58:37;1.80;;;1.03;;
2001;SDS011;1003;48.002;7.788;2022-12-29T09:01:04;4.30;;;1.30;;
2001;SDS011;1003;48.002;7.788;2022-12-29T09:03:31;1.40;;;1.30;;
2001;SDS011;1003;48.002;7.788;2022-12-29T09:05:58;2.13;;;1.20;;
2001;SDS011;1003;48.002;7.788;2022-12-29T09:08:25;3.43;;;1.20;;
2001;SDS011;1003;48.002;7.788;2022-12-29T09:10:53;2.60;;;1.23;;
2001;SDS011;1003;48.002;7.788;2022-12-29T09:13:20;1.40;;;1.20;;
2001;SDS011;1003;48.002;7.788;2022-12-29T09:15:48;1.97;;;1.20;;
2001;SDS011;1003;48.002;7.788;2022-12-29T09:18:24;1.73;;;1.37;;
2001;SDS011;1003;48.002;7.788;2022-12-29T09:20:55;2.67;;;1.30;;
2001;SDS011;1003;48.002;7.788;2022-12-29T09:23:23;2.60;;;1.33;;
2001;SDS011;1003;48.002;7.788;2022-12-29T09:25:51;3.17;;;1.30;;
2001;SDS011;1003;48.002;7.788;2022-12-29T09:28:18;1.17;;;1.00;;
2001;SDS011;1003;48.002;7.788;2022-12-29T09:30:46;2.43;;;1.50;;
2001;SDS011;1003;48.002;7.788;2022-12-29T09:33:15;3.43;;;1.00;;
2001;SDS011;1003;48.002;7.788;2022-12-29T09:35:42;1.23;;;1.10;;
2001;SDS011;1003;48.002;7.788;2022-12-29T09:38:10;2.10;;;1.50;;
2001;SDS011;1003;48.002;7.788;2022-12-29T09:40:37;0.93;;;0.90;;
2001;SDS011;1003;48.002;7.788;2022-12-29T09:43:12;1.80;;;1.50;;
2001;SDS011;1003;48.002;7.788;2022-12-29T09:46:06;2.50;;;1.70;;
2001;SDS011;1003;48.002;7.788;2022-12-29T09:48:44;2.40;;;1.40;;
2001;SDS011;1003;48.002;7.788;2022-12-29T09:51:21;1.80;;;1.33;;
2001;SDS011;1003;48.002;7.788;2022-12-29T09:53:51;2.07;;;1.30;;
2001;SDS011;1003;48.002;7.788;2022-12-29T09:56:24;2.97;;;1.30;;
2001;SDS011;1003;48.002;7.788;2022-12-29T09:58:54;3.07;;;1.50;;
2001;SDS011;1003;48.002;7.788;2022-12-29T10:01:30;4.83;;;1.70;;
2001;SDS011;1003;48.002;7.788;2022-12-29T10:04:02;3.07;;;1.33;;
2001;SDS011;1003;48.002;7.788;2022-12-29T10:06:32;2.63;;;1.70;;
2001;SDS011;1003;48.002;7.788;2022-12-29T10:09:13;1.73;;;1.43;;
2001;SDS011;1003;48.002;7.788;2022-12-29T10:11:52;5.30;;;1.73;;
2001;SDS011;1003;48.002;7.788;2022-12-29T10:14:44;4.20;;;1.70;;
2001;SDS011;1003;48.002;7.788;2022-12-29T10:17:28;2.30;;;1.50;;
2001;SDS011;1003;48.002;7.788;2022-12-29T10:23:11;3.80;;;1.70;;
2001;SDS011;1003;48.002;7.788;2022-12-29T10:25:51;2.33;;;1.67;;
2001;SDS011;1003;48.002;7.788;2022-12-29T10:28:22;3.33;;;1.63;;
2001;SDS011;1003;48.002;7.788;2022-12-29T10:31:00;2.13;;;1.90;;
2001;SDS011;1003;48.002;7.788;2022-12-29T10:33:34;2.80;;;2.00;;
2001;SDS011;1003;48.002;7.788;2022-12-29T10:36:10;3.47;;;2.00;;
2001;SDS011;1003;48.002;7.788;2022-12-29T10:38:45;4.13;;;2.10;;
2001;SDS011;1003;48.002;7.788;2022-12-29T10:41:25;2.13;;;1.50;;
2001;SDS011;1003;48.002;7.788;2022-12-29T10:44:03;3.93;;;1.60;;
2001;SDS011;1003;48.002;7.788;2022-12-29T10:46:32;3.33;;;1.70;;
2001;SDS011;1003;48.002;7.788;2022-12-29T10:49:05;2.00;;;1.47;;
2001;SDS011;1003;48.002;7.788;2022-12-29T10:51:42;4.27;;;1.90;;
2001;SDS011;1003;48.002;7.788;2022-12-29T10:54:14;2.10;;;1.90;;
2001;SDS011;1003;48.002;7.788;2022-12-29T10:56:49;1.57;;;1.47;;
2001;SDS011;1003;48.002;7.788;2022-12-29T10:59:21;4.23;;;1.90;;
2001;SDS011;1003;48.002;7.788;2022-12-29T11:01:58;2.83;;;2.00;;
2001;SDS011;1003;48.002;7.788;2022-12-29T11:04:59;2.93;;;1.53;;
2001;SDS011;1003;48.002;7.788;2022-12-29T11:07:32;2.30;;;1.50;;
2001;SDS011;1003;48.002;7.788;2022-12-29T11:12:57;3.50;;;1.77;;
2001;SDS011;1003;48.002;7.788;2022-12-29T11:15:28;3.03;;;2.00;;
2001;SDS011;1003;48.002;7.788;2022-12-29T11:18:07;3.17;;;1.70;;
2001;SDS011;1003;48.002;7.788;2022-12-29T11:20:48;1.77;;;1.60;;
2001;SDS011;1003;48.002;7.788;2022-12-29T11:23:25;4.40;;;1.50;;
2001;SDS011;1003;48.002;7.788;2022-12-29T11:26:11;2.60;;;1.83;;
2001;SDS011;1003;48.002;7.788;2022-12-29T11:28:44;3.53;;;1.90;;
2001;SDS011;1003;48.002;7.788;2022-12-29T11:31:17;2.57;;;1.57;;
2001;SDS011;1003;48.002;7.788;2022-12-29T11:33:47;2.47;;;1.50;;
2001;SDS011;1003;48.002;7.788;2022-12-29T11:36:17;2.13;;;1.60;;
2001;SDS011;1003;48.002;7.788;2022-12-29T11:38:49;2.13;;;1.40;;
2001;SDS011;1003;48.002;7.788;2022-12-29T11:41:20;6.07;;;1.83;;
2001;SDS011;1003;48.002;7.788;2022-12-29T11:43:50;1.63;;;1.30;;
2001;SDS011;1003;48.002;7.788;2022-12-29T11:46:20;1.97;;;1.43;;
2001;SDS011;1003;48.002;7.788;2022-12-29T11:48:53;1.40;;;1.30;;
2001;SDS011;1003;48.002;7.788;2022-12-29T11:51:26;1.80;;;1.33;;
2001;SDS011;1003;48.002;7.788;2022-12-29T11:53:57;2.60;;;1.33;;
2001;SDS011;1003;48.002;7.788;2022-12-29T11:56:33;2.80;;;1.43;;
2001;SDS011;1003;48.002;7.788;2022-12-29T12:02:13;3.67;;;1.50;;
2001;SDS011;1003;48.002;7.788;2022-12-29T12:05:04;1.37;;;1.23;;
2001;SDS011;1003;48.002;7.788;2022-12-29T12:07:42;2.53;;;1.33;;
2001;SDS011;1003;48.002;7.788;2022-12-29T12:10:15;2.03;;;1.20;;
2001;SDS011;1003;48.002;7.788;2022-12-29T12:12:52;1.43;;;1.30;;
2001;SDS011;1003;48.002;7.788;2022-12-29T12:15:31;3.23;;;1.50;;
2001;SDS011;1003;48.002;7.788;2022-12-29T12:18:08;1.40;;;1.30;;
2001;SDS011;1003;48.002;7.788;2022-12-29T12:20:44;1.50;;;1.37;;
2001;SDS011;1003;48.002;7.788;2022-12-29T12:23:30;4.50;;;1.60;;
2001;SDS011;1003;48.002;7.788;2022-12-29T12:26:10;1.30;;;1.27;;
2001;SDS011;1003;48.002;7.788;2022-12-29T12:28:43;2.20;;;1.27;;
2001;SDS011;1003;48.002;7.788;2022-12-29T12:31:21;1.53;;;1.27;;
2001;SDS011;1003;48.002;7.788;2022-12-29T12:34:03;1.50;;;1.30;;
2001;SDS011;1003;48.002;7.788;2022-12-29T12:36:48;1.53;;;1.40;;
2001;SDS011;1003;48.002;7.788;2022-12-29T12:39:49;1.60;;;1.37;;
2001;SDS011;1003;48.002;7.788;2022-12-29T12:42:46;1.23;;;1.13;;
2001;SDS011;1003;48.002;7.788;2022-12-29T12:45:31;4.47;;;1.40;;
2001;SDS011;1003;48.002;7.788;2022-12-29T12:48:19;2.60;;;1.70;;
2001;SDS011;1003;48.002;7.788;2022-12-29T12:51:14;2.30;;;1.50;;
2001;SDS011;1003;48.002;7.788;2022-12-29T12:54:06;2.37;;;1.47;;
2001;SDS011;1003;48.002;7.788;2022-12-29T12:56:57;2.87;;;1.30;;
2001;SDS011;1003;48.002;7.788;2022-12-29T12:59:44;1.93;;;1.40;;
2001;SDS011;1003;48.002;7.788;2022-12-29T13:02:26;2.60;;;1.90;;
2001;SDS011;1003;48.002;7.788;2022-12-29T13:05:14;3.07;;;1.70;;
2001;SDS011;1003;48.002;7.788;2022-12-29T13:07:55;1.53;;;1.43;;
2001;SDS011;1003;48.002;7.788;2022-12-29T13:10:46;1.70;;;1.40;;
2001;SDS011;1003;48.002;7.788;2022-12-29T13:13:33;2.90;;;1.73;;
2001;SDS011;1003;48.002;7.788;2022-12-29T13:16:23;2.63;;;1.40;;
2001;SDS011;1003;48.002;7.788;2022-12-29T13:19:01;1.80;;;1.50;;
2001;SDS011;1003;48.002;7.788;2022-12-29T13:21:37;2.00;;;1.47;;
2001;SDS011;1003;48.002;7.788;2022-12-29T13:24:24;3.67;;;1.50;;
2001;SDS011;1003;48.002;7.788;2022-12-29T13:27:03;2.33;;;1.80;;
2001;SDS011;1003;48.002;7.788;2022-12-29T13:29:45;4.60;;;1.80;;
2001;SDS011;1003;48.002;7.788;2022-12-29T13:32:29;4.77;;;1.60;;
2001;SDS011;1003;48.002;7.788;2022-12-29T13:35:12;3.73;;;1.50;;
2001;SDS011;1003;48.002;7.788;2022-12-29T13:38:03;1.53;;;1.43;;
2001;SDS011;1003;48.002;7.788;2022-12-29T13:40:38;2.97;;;1.63;;
2001;SDS011;1003;48.002;7.788;2022-12-29T13:43:11;2.77;;;1.40;;
2001;SDS011;1003;48.002;7.788;2022-12-29T13:45:43;3.67;;;1.57;;
2001;SDS011;1003;48.002;7.788;2022-12-29T13:48:19;2.10;;;1.60;;
2001;SDS011;1003;48.002;7.788;2022-12-29T13:50:53;2.57;;;1.70;;
2001;SDS011;1003;48.002;7.788;2022-12-29T13:53:25;2.73;;;1.60;;
2001;SDS011;1003;48.002;7.788;2022-12-29T13:56:05;2.63;;;1.50;;
2001;SDS011;1003;48.002;7.788;2022-12-29T13:58:41;2.30;;;1.60;;
2001;SDS011;1003;48.002;7.788;2022-12-29T14:01:19;2.27;;;1.60;;
2001;SDS011;1003;48.002;7.788;2022-12-29T14:03:55;3.70;;;1.70;;
2001;SDS011;1003;48.002;7.788;2022-12-29T14:06:25;2.73;;;1.97;;
2001;SDS011;1003;48.002;7.788;2022-12-29T14:08:55;2.47;;;1.50;;
2001;SDS011;1003;48.002;7.788;2022-12-29T14:11:29;2.87;;;1.80;;
2001;SDS011;1003;48.002;7.788;2022-12-29T14:14:00;1.87;;;1.60;;
2001;SDS011;1003;48.002;7.788;2022-12-29T14:16:46;4.67;;;1.70;;
2001;SDS011;1003;48.002;7.788;2022-12-29T14:19:15;4.03;;;1.67;;
2001;SDS011;1003;48.002;7.788;2022-12-29T14:21:51;2.30;;;1.57;;
2001;SDS011;1003;48.002;7.788;2022-12-29T14:33:20;3.47;;;1.90;;
2001;SDS011;1003;48.002;7.788;2022-12-29T14:35:51;2.03;;;1.63;;
2001;SDS011;1003;48.002;7.788;2022-12-29T14:38:27;4.50;;;1.83;;
2001;SDS011;1003;48.002;7.788;2022-12-29T14:43:53;4.07;;;1.80;;
2001;SDS011;1003;48.002;7.788;2022-12-29T14:46:25;2.87;;;1.90;;
2001;SDS011;1003;48.002;7.788;2022-12-29T14:49:18;3.13;;;1.70;;
2001;SDS011;1003;48.002;7.788;2022-12-29T14:51:50;2.70;;;1.73;;
2001;SDS011;1003;48.002;7.788;2022-12-29T14:57:18;4.33;;;1.70;;
2001;SDS011;1003;48.002;7.788;2022-12-29T15:00:01;2.40;;;1.63;;
2001;SDS011;1003;48.002;7.788;2022-12-29T15:02:36;2.80;;;2.00;;
2001;SDS011;1003;48.002;7.788;2022-12-29T15:05:22;3.77;;;1.77;;
2001;SDS011;1003;48.002;7.788;2022-12-29T15:07:56;2.50;;;1.80;;
2001;SDS011;1003;48.002;7.788;2022-12-29T15:10:26;2.90;;;1.87;;
2001;SDS011;1003;48.002;7.788;2022-12-29T15:13:13;3.37;;;1.90;;
2001;SDS011;1003;48.002;7.788;2022-12-29T15:15:47;4.17;;;2.00;;
2001;SDS011;1003;48.002;7.788;2022-12-29T15:18:18;3.77;;;2.00;;
2001;SDS011;1003;48.002;7.788;2022-12-29T15:20:53;4.37;;;2.30;;
2001;SDS011;1003;48.002;7.788;2022-12-29T15:23:27;2.73;;;1.93;;
2001;SDS011;1003;48.002;7.788;2022-12-29T15:26:00;4.30;;;2.43;;
2001;SDS011;1003;48.002;7.788;2022-12-29T15:28:36;5.33;;;2.20;;
2001;SDS011;1003;48.002;7.788;2022-12-29T15:31:06;4.17;;;2.20;;
2001;SDS011;1003;48.002;7.788;2022-12-29T15:33:39;4.43;;;2.13;;
2001;SDS011;1003;48.002;7.788;2022-12-29T15:36:11;2.80;;;2.30;;
2001;SDS011;1003;48.002;7.788;2022-12-29T15:38:43;2.57;;;1.90;;
2001;SDS011;1003;48.002;7.788;2022-12-29T15:41:17;5.43;;;2.30;;
2001;SDS011;1003;48.002;7.788;2022-12-29T15:44:24;3.47;;;1.90;;
2001;SDS011;1003;48.002;7.788;2022-12-29T15:46:56;2.47;;;1.90;;
2001;SDS011;1003;48.002;7.788;2022-12-29T15:49:27;4.20;;;2.00;;
2001;SDS011;1003;48.002;7.788;2022-12-29T15:51:55;3.97;;;2.10;;
2001;SDS011;1003;48.002;7.788;2022-12-29T15:54:23;3.00;;;2.10;;
2001;SDS011;1003;48.002;7.788;2022-12-29T15:56:55;4.87;;;2.20;;
2001;SDS011;1003;48.002;7.788;2022-12-29T15:59:23;2.40;;;2.13;;
2001;SDS011;1003;48.002;7.788;2022-12-29T16:01:53;3.50;;;2.30;;
2001;SDS011;1003;48.002;7.788;2022-12-29T16:04:21;2.20;;;2.00;;
2001;SDS011;1003;48.002;7.788;2022-12-29T16:06:57;6.40;;;2.80;;
2001;SDS011;1003;48.002;7.788;2022-12-29T16:09:30;4.00;;;2.40;;
2001;SDS011;1003;48.002;7.788;2022-12-29T16:12:00;3.30;;;2.10;;
2001;SDS011;1003;48.002;7.788;2022-12-29T16:14:32;4.07;;;2.30;;
2001;SDS011;1003;48.002;7.788;2022-12-29T16:17:06;5.43;;;2.27;;
2001;SDS011;1003;48.002;7.788;2022-12-29T16:19:40;6.33;;;2.30;;